sensor_id;sensor_type;location;lat;lon;timestamp;P1;durP1;ratioP1;P2;durP2;ratioP2
48574;SDS011;34352;51.084;3.712;2022-12-01T00:00:10;598.53;;;69.30;;
48574;SDS011;34352;51.084;3.712;2022-12-01T00:02:37;515.30;;;61.63;;
48574;SDS011;34352;51.084;3.712;2022-12-01T00:05:02;307.92;;;53.80;;
48574;SDS011;34352;51.084;3.712;2022-12-01T00:07:47;279.23;;;53.42;;
48574;SDS011;34352;51.084;3.712;2022-12-01T00:10:13;375.80;;;55.55;;
48574;SDS011;34352;51.084;3.712;2022-12-01T00:12:52;361.27;;;55.80;;
48574;SDS011;34352;51.084;3.712;2022-12-01T00:15:18;238.98;;;50.67;;
48574;SDS011;34352;51.084;3.712;2022-12-01T00:17:48;213.57;;;50.03;;
48574;SDS011;34352;51.084;3.712;2022-12-01T00:20:15;244.88;;;49.85;;
48574;SDS011;34352;51.084;3.712;2022-12-01T00:22:45;236.10;;;48.55;;
48574;SDS011;34352;51.084;3.712;2022-12-01T00:25:12;428.10;;;57.35;;
48574;SDS011;34352;51.084;3.712;2022-12-01T00:27:39;240.82;;;49.53;;
48574;SDS011;34352;51.084;3.712;2022-12-01T00:30:06;332.25;;;54.53;;
48574;SDS011;34352;51.084;3.712;2022-12-01T00:32:33;156.77;;;43.45;;
48574;SDS011;34352;51.084;3.712;2022-12-01T00:35:00;192.13;;;46.85;;
48574;SDS011;34352;51.084;3.712;2022-12-01T00:37:31;154.90;;;45.25;;
48574;SDS011;34352;51.084;3.712;2022-12-01T00:39:57;228.35;;;50.65;;
48574;SDS011;34352;51.084;3.712;2022-12-01T00:42:23;151.98;;;45.28;;
48574;SDS011;34352;51.084;3.712;2022-12-01T00:44:49;226.45;;;47.90;;
48574;SDS011;34352;51.084;3.712;2022-12-01T00:47:15;149.82;;;44.25;;
48574;SDS011;34352;51.084;3.712;2022-12-01T00:49:41;127.68;;;41.25;;
48574;SDS011;34352;51.084;3.712;2022-12-01T00:52:11;132.18;;;42.45;;
48574;SDS011;34352;51.084;3.712;2022-12-01T00:54:38;122.32;;;43.45;;
48574;SDS011;34352;51.084;3.712;2022-12-01T00:57:04;157.43;;;45.60;;
48574;SDS011;34352;51.084;3.712;2022-12-01T00:59:29;121.07;;;44.63;;
48574;SDS011;34352;51.084;3.712;2022-12-01T01:01:55;127.45;;;44.58;;
48574;SDS011;34352;51.084;3.712;2022-12-01T01:04:22;112.88;;;42.65;;
48574;SDS011;34352;51.084;3.712;2022-12-01T01:09:18;109.72;;;41.67;;
48574;SDS011;34352;51.084;3.712;2022-12-01T01:11:44;97.80;;;37.90;;
48574;SDS011;34352;51.084;3.712;2022-12-01T01:14:09;99.55;;;38.08;;
48574;SDS011;34352;51.084;3.712;2022-12-01T01:16:35;105.22;;;39.90;;
48574;SDS011;34352;51.084;3.712;2022-12-01T01:22:02;89.22;;;37.05;;
48574;SDS011;34352;51.084;3.712;2022-12-01T01:27:29;99.13;;;37.13;;
48574;SDS011;34352;51.084;3.712;2022-12-01T01:32:47;106.53;;;36.67;;
48574;SDS011;34352;51.084;3.712;2022-12-01T01:37:51;141.40;;;40.25;;
48574;SDS011;34352;51.084;3.712;2022-12-01T01:40:16;125.97;;;38.88;;
48574;SDS011;34352;51.084;3.712;2022-12-01T01:42:56;143.40;;;40.63;;
48574;SDS011;34352;51.084;3.712;2022-12-01T01:45:29;139.98;;;39.53;;
48574;SDS011;34352;51.084;3.712;2022-12-01T01:47:56;142.23;;;40.50;;
48574;SDS011;34352;51.084;3.712;2022-12-01T01:53:13;135.63;;;40.50;;
48574;SDS011;34352;51.084;3.712;2022-12-01T01:55:39;143.63;;;43.13;;
48574;SDS011;34352;51.084;3.712;2022-12-01T01:58:06;158.25;;;42.70;;
48574;SDS011;34352;51.084;3.712;2022-12-01T02:00:34;157.77;;;42.72;;
48574;SDS011;34352;51.084;3.712;2022-12-01T02:03:01;155.43;;;44.95;;
48574;SDS011;34352;51.084;3.712;2022-12-01T02:08:49;148.97;;;41.57;;
48574;SDS011;34352;51.084;3.712;2022-12-01T02:28:47;168.73;;;47.38;;
48574;SDS011;34352;51.084;3.712;2022-12-01T02:31:57;175.18;;;47.80;;
48574;SDS011;34352;51.084;3.712;2022-12-01T02:40:12;183.40;;;51.65;;
48574;SDS011;34352;51.084;3.712;2022-12-01T02:48:25;192.88;;;52.63;;
48574;SDS011;34352;51.084;3.712;2022-12-01T02:51:04;187.38;;;50.30;;
48574;SDS011;34352;51.084;3.712;2022-12-01T02:53:34;186.18;;;50.15;;
48574;SDS011;34352;51.084;3.712;2022-12-01T03:15:00;162.32;;;48.67;;
48574;SDS011;34352;51.084;3.712;2022-12-01T03:17:37;168.85;;;50.13;;
48574;SDS011;34352;51.084;3.712;2022-12-01T03:20:14;161.60;;;49.00;;
48574;SDS011;34352;51.084;3.712;2022-12-01T03:29:38;99.88;;;33.65;;
48574;SDS011;34352;51.084;3.712;2022-12-01T03:41:44;134.55;;;43.88;;
48574;SDS011;34352;51.084;3.712;2022-12-01T03:44:20;113.28;;;40.58;;
48574;SDS011;34352;51.084;3.712;2022-12-01T03:46:56;113.93;;;40.05;;
48574;SDS011;34352;51.084;3.712;2022-12-01T03:53:00;98.22;;;36.17;;
48574;SDS011;34352;51.084;3.712;2022-12-01T03:55:35;117.05;;;42.05;;
48574;SDS011;34352;51.084;3.712;2022-12-01T03:58:22;122.05;;;45.42;;
48574;SDS011;34352;51.084;3.712;2022-12-01T04:00:53;100.63;;;37.33;;
48574;SDS011;34352;51.084;3.712;2022-12-01T04:03:29;115.93;;;41.97;;
48574;SDS011;34352;51.084;3.712;2022-12-01T04:09:17;99.45;;;39.78;;
48574;SDS011;34352;51.084;3.712;2022-12-01T04:17:48;111.18;;;41.20;;
48574;SDS011;34352;51.084;3.712;2022-12-01T04:23:07;107.30;;;40.38;;
48574;SDS011;34352;51.084;3.712;2022-12-01T04:25:41;112.22;;;40.58;;
48574;SDS011;34352;51.084;3.712;2022-12-01T04:30:56;91.78;;;35.13;;
48574;SDS011;34352;51.084;3.712;2022-12-01T04:36:03;104.22;;;39.88;;
48574;SDS011;34352;51.084;3.712;2022-12-01T04:38:29;98.78;;;38.97;;
48574;SDS011;34352;51.084;3.712;2022-12-01T04:40:57;96.38;;;38.67;;
48574;SDS011;34352;51.084;3.712;2022-12-01T04:43:38;95.50;;;36.58;;
48574;SDS011;34352;51.084;3.712;2022-12-01T04:46:06;98.45;;;37.97;;
48574;SDS011;34352;51.084;3.712;2022-12-01T04:48:39;93.10;;;35.22;;
48574;SDS011;34352;51.084;3.712;2022-12-01T04:51:06;99.30;;;38.55;;
48574;SDS011;34352;51.084;3.712;2022-12-01T04:56:21;102.68;;;39.10;;
48574;SDS011;34352;51.084;3.712;2022-12-01T05:02:08;99.57;;;37.70;;
48574;SDS011;34352;51.084;3.712;2022-12-01T05:16:58;103.70;;;39.22;;
48574;SDS011;34352;51.084;3.712;2022-12-01T05:22:46;104.65;;;38.75;;
48574;SDS011;34352;51.084;3.712;2022-12-01T05:25:12;106.05;;;39.17;;
48574;SDS011;34352;51.084;3.712;2022-12-01T05:27:47;115.88;;;40.22;;
48574;SDS011;34352;51.084;3.712;2022-12-01T05:33:34;112.90;;;41.00;;
48574;SDS011;34352;51.084;3.712;2022-12-01T05:41:30;125.75;;;45.10;;
48574;SDS011;34352;51.084;3.712;2022-12-01T05:43:55;121.43;;;43.95;;
48574;SDS011;34352;51.084;3.712;2022-12-01T05:49:16;126.97;;;43.25;;
48574;SDS011;34352;51.084;3.712;2022-12-01T05:51:42;122.60;;;44.08;;
48574;SDS011;34352;51.084;3.712;2022-12-01T05:54:13;130.10;;;44.63;;
48574;SDS011;34352;51.084;3.712;2022-12-01T05:56:44;142.15;;;46.00;;
48574;SDS011;34352;51.084;3.712;2022-12-01T05:59:10;144.45;;;47.70;;
48574;SDS011;34352;51.084;3.712;2022-12-01T06:01:35;133.90;;;44.50;;
48574;SDS011;34352;51.084;3.712;2022-12-01T06:04:01;134.35;;;45.53;;
48574;SDS011;34352;51.084;3.712;2022-12-01T06:12:11;128.98;;;44.08;;
48574;SDS011;34352;51.084;3.712;2022-12-01T06:14:37;137.90;;;45.13;;
48574;SDS011;34352;51.084;3.712;2022-12-01T06:17:02;140.02;;;46.85;;
48574;SDS011;34352;51.084;3.712;2022-12-01T06:19:28;137.07;;;48.80;;
48574;SDS011;34352;51.084;3.712;2022-12-01T06:22:02;136.98;;;47.08;;
48574;SDS011;34352;51.084;3.712;2022-12-01T06:24:28;142.20;;;47.45;;
48574;SDS011;34352;51.084;3.712;2022-12-01T06:26:54;135.07;;;47.10;;
48574;SDS011;34352;51.084;3.712;2022-12-01T06:29:19;139.27;;;47.38;;
48574;SDS011;34352;51.084;3.712;2022-12-01T06:31:45;130.93;;;46.22;;
48574;SDS011;34352;51.084;3.712;2022-12-01T06:34:11;132.05;;;46.05;;
48574;SDS011;34352;51.084;3.712;2022-12-01T06:36:36;142.50;;;47.67;;
48574;SDS011;34352;51.084;3.712;2022-12-01T06:39:13;135.55;;;46.00;;
48574;SDS011;34352;51.084;3.712;2022-12-01T06:41:39;134.68;;;44.30;;
48574;SDS011;34352;51.084;3.712;2022-12-01T06:44:06;121.60;;;42.00;;
48574;SDS011;34352;51.084;3.712;2022-12-01T06:46:33;138.07;;;45.42;;
48574;SDS011;34352;51.084;3.712;2022-12-01T06:48:59;137.82;;;47.75;;
48574;SDS011;34352;51.084;3.712;2022-12-01T06:51:25;137.90;;;46.97;;
48574;SDS011;34352;51.084;3.712;2022-12-01T06:54:04;142.82;;;46.45;;
48574;SDS011;34352;51.084;3.712;2022-12-01T06:56:30;140.05;;;47.25;;
48574;SDS011;34352;51.084;3.712;2022-12-01T06:58:55;138.07;;;46.58;;
48574;SDS011;34352;51.084;3.712;2022-12-01T07:01:22;134.45;;;45.38;;
48574;SDS011;34352;51.084;3.712;2022-12-01T07:04:02;145.55;;;48.30;;
48574;SDS011;34352;51.084;3.712;2022-12-01T07:06:28;143.45;;;48.20;;
48574;SDS011;34352;51.084;3.712;2022-12-01T07:08:54;142.10;;;47.50;;
48574;SDS011;34352;51.084;3.712;2022-12-01T07:13:53;142.35;;;47.53;;
48574;SDS011;34352;51.084;3.712;2022-12-01T07:16:20;129.18;;;46.30;;
48574;SDS011;34352;51.084;3.712;2022-12-01T07:18:47;149.93;;;47.17;;
48574;SDS011;34352;51.084;3.712;2022-12-01T07:21:14;134.60;;;45.92;;
48574;SDS011;34352;51.084;3.712;2022-12-01T07:23:41;145.27;;;48.97;;
48574;SDS011;34352;51.084;3.712;2022-12-01T07:26:09;146.38;;;46.53;;
48574;SDS011;34352;51.084;3.712;2022-12-01T07:28:36;143.05;;;47.60;;
48574;SDS011;34352;51.084;3.712;2022-12-01T07:33:34;132.73;;;45.90;;
48574;SDS011;34352;51.084;3.712;2022-12-01T07:36:00;133.23;;;45.45;;
48574;SDS011;34352;51.084;3.712;2022-12-01T07:38:26;144.10;;;47.22;;
48574;SDS011;34352;51.084;3.712;2022-12-01T07:40:53;143.85;;;48.03;;
48574;SDS011;34352;51.084;3.712;2022-12-01T07:43:19;137.07;;;47.28;;
48574;SDS011;34352;51.084;3.712;2022-12-01T07:45:44;143.73;;;47.67;;
48574;SDS011;34352;51.084;3.712;2022-12-01T07:48:10;143.07;;;45.97;;
48574;SDS011;34352;51.084;3.712;2022-12-01T07:50:36;140.10;;;47.08;;
48574;SDS011;34352;51.084;3.712;2022-12-01T07:53:01;141.27;;;50.45;;
48574;SDS011;34352;51.084;3.712;2022-12-01T07:55:27;150.10;;;52.08;;
48574;SDS011;34352;51.084;3.712;2022-12-01T07:57:53;153.60;;;52.75;;
48574;SDS011;34352;51.084;3.712;2022-12-01T08:00:18;152.15;;;49.92;;
48574;SDS011;34352;51.084;3.712;2022-12-01T08:02:46;145.38;;;48.92;;
48574;SDS011;34352;51.084;3.712;2022-12-01T08:05:13;138.95;;;47.30;;
48574;SDS011;34352;51.084;3.712;2022-12-01T08:07:38;146.23;;;48.33;;
48574;SDS011;34352;51.084;3.712;2022-12-01T08:10:04;146.30;;;49.17;;
48574;SDS011;34352;51.084;3.712;2022-12-01T08:12:31;143.43;;;47.88;;
48574;SDS011;34352;51.084;3.712;2022-12-01T08:14:57;146.05;;;49.42;;
48574;SDS011;34352;51.084;3.712;2022-12-01T08:17:22;145.95;;;48.10;;
48574;SDS011;34352;51.084;3.712;2022-12-01T08:19:48;159.45;;;49.28;;
48574;SDS011;34352;51.084;3.712;2022-12-01T08:22:13;140.95;;;47.60;;
48574;SDS011;34352;51.084;3.712;2022-12-01T08:24:39;150.93;;;49.42;;
48574;SDS011;34352;51.084;3.712;2022-12-01T08:27:05;146.85;;;48.85;;
48574;SDS011;34352;51.084;3.712;2022-12-01T08:29:30;157.57;;;48.95;;
48574;SDS011;34352;51.084;3.712;2022-12-01T08:31:57;156.90;;;48.85;;
48574;SDS011;34352;51.084;3.712;2022-12-01T08:34:23;156.52;;;48.83;;
48574;SDS011;34352;51.084;3.712;2022-12-01T08:36:48;139.07;;;47.72;;
48574;SDS011;34352;51.084;3.712;2022-12-01T08:39:14;142.82;;;48.75;;
48574;SDS011;34352;51.084;3.712;2022-12-01T08:41:40;145.15;;;49.22;;
48574;SDS011;34352;51.084;3.712;2022-12-01T08:44:06;134.95;;;46.33;;
48574;SDS011;34352;51.084;3.712;2022-12-01T08:46:33;139.52;;;49.80;;
48574;SDS011;34352;51.084;3.712;2022-12-01T08:49:00;134.45;;;48.45;;
48574;SDS011;34352;51.084;3.712;2022-12-01T08:51:27;131.50;;;46.50;;
48574;SDS011;34352;51.084;3.712;2022-12-01T08:53:53;130.93;;;48.40;;
48574;SDS011;34352;51.084;3.712;2022-12-01T08:58:48;138.30;;;47.75;;
48574;SDS011;34352;51.084;3.712;2022-12-01T09:01:15;130.88;;;47.55;;
48574;SDS011;34352;51.084;3.712;2022-12-01T09:03:41;116.15;;;43.88;;
48574;SDS011;34352;51.084;3.712;2022-12-01T09:06:10;109.63;;;43.95;;
48574;SDS011;34352;51.084;3.712;2022-12-01T09:11:08;109.10;;;42.67;;
48574;SDS011;34352;51.084;3.712;2022-12-01T09:13:36;100.85;;;43.17;;
48574;SDS011;34352;51.084;3.712;2022-12-01T09:16:04;88.53;;;39.47;;
48574;SDS011;34352;51.084;3.712;2022-12-01T09:18:35;84.95;;;37.00;;
48574;SDS011;34352;51.084;3.712;2022-12-01T09:21:11;79.13;;;36.55;;
48574;SDS011;34352;51.084;3.712;2022-12-01T09:23:39;75.70;;;36.75;;
48574;SDS011;34352;51.084;3.712;2022-12-01T09:26:05;69.43;;;34.28;;
48574;SDS011;34352;51.084;3.712;2022-12-01T09:28:31;66.18;;;31.38;;
48574;SDS011;34352;51.084;3.712;2022-12-01T09:30:58;58.92;;;31.83;;
48574;SDS011;34352;51.084;3.712;2022-12-01T09:33:30;53.63;;;29.67;;
48574;SDS011;34352;51.084;3.712;2022-12-01T09:35:59;54.38;;;30.35;;
48574;SDS011;34352;51.084;3.712;2022-12-01T09:38:29;54.42;;;30.95;;
48574;SDS011;34352;51.084;3.712;2022-12-01T09:40:56;58.30;;;29.48;;
48574;SDS011;34352;51.084;3.712;2022-12-01T09:43:26;54.22;;;31.10;;
48574;SDS011;34352;51.084;3.712;2022-12-01T09:46:01;49.35;;;29.27;;
48574;SDS011;34352;51.084;3.712;2022-12-01T09:48:41;53.80;;;29.33;;
48574;SDS011;34352;51.084;3.712;2022-12-01T09:51:11;49.50;;;28.63;;
48574;SDS011;34352;51.084;3.712;2022-12-01T09:53:49;50.25;;;29.48;;
48574;SDS011;34352;51.084;3.712;2022-12-01T09:56:21;49.28;;;28.92;;
48574;SDS011;34352;51.084;3.712;2022-12-01T09:59:01;51.58;;;28.70;;
48574;SDS011;34352;51.084;3.712;2022-12-01T10:01:32;51.22;;;29.20;;
48574;SDS011;34352;51.084;3.712;2022-12-01T10:04:04;54.15;;;30.02;;
48574;SDS011;34352;51.084;3.712;2022-12-01T10:06:59;52.50;;;30.10;;
48574;SDS011;34352;51.084;3.712;2022-12-01T10:09:47;52.30;;;29.33;;
48574;SDS011;34352;51.084;3.712;2022-12-01T10:12:20;53.17;;;29.65;;
48574;SDS011;34352;51.084;3.712;2022-12-01T10:14:48;55.47;;;30.48;;
48574;SDS011;34352;51.084;3.712;2022-12-01T10:22:53;53.78;;;31.85;;
48574;SDS011;34352;51.084;3.712;2022-12-01T10:28:55;46.67;;;25.38;;
48574;SDS011;34352;51.084;3.712;2022-12-01T10:34:15;42.55;;;24.38;;
48574;SDS011;34352;51.084;3.712;2022-12-01T10:36:44;41.00;;;24.13;;
48574;SDS011;34352;51.084;3.712;2022-12-01T10:39:23;43.40;;;24.98;;
48574;SDS011;34352;51.084;3.712;2022-12-01T10:42:45;45.30;;;24.67;;
48574;SDS011;34352;51.084;3.712;2022-12-01T10:45:04;47.58;;;26.52;;
48574;SDS011;34352;51.084;3.712;2022-12-01T10:47:34;52.35;;;27.95;;
48574;SDS011;34352;51.084;3.712;2022-12-01T10:49:59;46.63;;;25.92;;
48574;SDS011;34352;51.084;3.712;2022-12-01T10:52:32;45.35;;;25.50;;
48574;SDS011;34352;51.084;3.712;2022-12-01T10:55:03;46.05;;;27.08;;
48574;SDS011;34352;51.084;3.712;2022-12-01T10:57:50;47.50;;;27.98;;
48574;SDS011;34352;51.084;3.712;2022-12-01T11:00:20;43.47;;;24.83;;
48574;SDS011;34352;51.084;3.712;2022-12-01T11:05:23;45.10;;;25.27;;
48574;SDS011;34352;51.084;3.712;2022-12-01T11:07:50;44.97;;;25.48;;
48574;SDS011;34352;51.084;3.712;2022-12-01T11:10:18;44.00;;;26.90;;
48574;SDS011;34352;51.084;3.712;2022-12-01T11:12:52;43.95;;;26.23;;
48574;SDS011;34352;51.084;3.712;2022-12-01T11:15:23;45.45;;;27.30;;
48574;SDS011;34352;51.084;3.712;2022-12-01T11:17:59;42.80;;;25.13;;
48574;SDS011;34352;51.084;3.712;2022-12-01T11:20:28;43.35;;;27.60;;
48574;SDS011;34352;51.084;3.712;2022-12-01T11:25:34;45.13;;;26.80;;
48574;SDS011;34352;51.084;3.712;2022-12-01T11:28:00;40.60;;;25.35;;
48574;SDS011;34352;51.084;3.712;2022-12-01T11:30:28;51.15;;;25.67;;
48574;SDS011;34352;51.084;3.712;2022-12-01T11:32:57;43.80;;;26.13;;
48574;SDS011;34352;51.084;3.712;2022-12-01T11:35:28;46.95;;;26.45;;
48574;SDS011;34352;51.084;3.712;2022-12-01T11:38:00;43.60;;;26.90;;
48574;SDS011;34352;51.084;3.712;2022-12-01T11:40:46;44.78;;;27.30;;
48574;SDS011;34352;51.084;3.712;2022-12-01T11:43:27;44.63;;;27.20;;
48574;SDS011;34352;51.084;3.712;2022-12-01T11:46:01;48.03;;;27.83;;
48574;SDS011;34352;51.084;3.712;2022-12-01T11:48:32;48.72;;;28.23;;
48574;SDS011;34352;51.084;3.712;2022-12-01T11:53:40;49.45;;;24.80;;
48574;SDS011;34352;51.084;3.712;2022-12-01T11:56:27;47.40;;;28.23;;
48574;SDS011;34352;51.084;3.712;2022-12-01T11:58:57;48.88;;;27.15;;
48574;SDS011;34352;51.084;3.712;2022-12-01T12:04:11;41.67;;;24.65;;
48574;SDS011;34352;51.084;3.712;2022-12-01T12:26:56;46.50;;;25.58;;
48574;SDS011;34352;51.084;3.712;2022-12-01T12:40:56;44.05;;;25.02;;
48574;SDS011;34352;51.084;3.712;2022-12-01T12:46:04;40.35;;;23.95;;
48574;SDS011;34352;51.084;3.712;2022-12-01T12:54:25;35.85;;;21.25;;
48574;SDS011;34352;51.084;3.712;2022-12-01T12:57:21;33.70;;;19.98;;
48574;SDS011;34352;51.084;3.712;2022-12-01T12:59:53;33.22;;;20.00;;
48574;SDS011;34352;51.084;3.712;2022-12-01T13:02:43;31.42;;;20.10;;
48574;SDS011;34352;51.084;3.712;2022-12-01T13:08:05;31.33;;;19.38;;
48574;SDS011;34352;51.084;3.712;2022-12-01T13:13:23;37.22;;;23.55;;
48574;SDS011;34352;51.084;3.712;2022-12-01T13:15:55;33.80;;;19.75;;
48574;SDS011;34352;51.084;3.712;2022-12-01T13:18:26;34.63;;;19.92;;
48574;SDS011;34352;51.084;3.712;2022-12-01T13:20:58;35.70;;;20.00;;
48574;SDS011;34352;51.084;3.712;2022-12-01T13:26:22;38.42;;;21.42;;
48574;SDS011;34352;51.084;3.712;2022-12-01T13:28:49;40.08;;;21.15;;
48574;SDS011;34352;51.084;3.712;2022-12-01T13:31:18;37.08;;;21.48;;
48574;SDS011;34352;51.084;3.712;2022-12-01T13:34:03;33.17;;;20.58;;
48574;SDS011;34352;51.084;3.712;2022-12-01T13:36:30;35.03;;;21.88;;
48574;SDS011;34352;51.084;3.712;2022-12-01T13:41:29;34.00;;;19.40;;
48574;SDS011;34352;51.084;3.712;2022-12-01T13:52:16;37.05;;;20.50;;
48574;SDS011;34352;51.084;3.712;2022-12-01T13:55:18;35.42;;;19.55;;
48574;SDS011;34352;51.084;3.712;2022-12-01T14:00:24;34.88;;;19.20;;
48574;SDS011;34352;51.084;3.712;2022-12-01T14:08:14;38.38;;;20.52;;
48574;SDS011;34352;51.084;3.712;2022-12-01T14:11:02;45.22;;;24.23;;
48574;SDS011;34352;51.084;3.712;2022-12-01T14:13:29;36.90;;;19.42;;
48574;SDS011;34352;51.084;3.712;2022-12-01T14:16:10;36.83;;;20.08;;
48574;SDS011;34352;51.084;3.712;2022-12-01T14:18:48;39.20;;;20.63;;
48574;SDS011;34352;51.084;3.712;2022-12-01T14:21:41;40.33;;;21.85;;
48574;SDS011;34352;51.084;3.712;2022-12-01T14:24:17;39.90;;;21.40;;
48574;SDS011;34352;51.084;3.712;2022-12-01T14:26:49;39.75;;;20.23;;
48574;SDS011;34352;51.084;3.712;2022-12-01T14:29:23;35.80;;;19.25;;
48574;SDS011;34352;51.084;3.712;2022-12-01T14:34:19;37.20;;;20.88;;
48574;SDS011;34352;51.084;3.712;2022-12-01T14:39:36;35.85;;;19.65;;
48574;SDS011;34352;51.084;3.712;2022-12-01T14:45:00;41.47;;;21.30;;
48574;SDS011;34352;51.084;3.712;2022-12-01T14:47:48;40.92;;;20.92;;
48574;SDS011;34352;51.084;3.712;2022-12-01T14:53:15;42.60;;;22.08;;
48574;SDS011;34352;51.084;3.712;2022-12-01T14:56:05;43.20;;;22.50;;
48574;SDS011;34352;51.084;3.712;2022-12-01T14:58:34;42.47;;;23.38;;
48574;SDS011;34352;51.084;3.712;2022-12-01T15:01:05;48.40;;;23.92;;
48574;SDS011;34352;51.084;3.712;2022-12-01T15:06:04;54.42;;;26.10;;
48574;SDS011;34352;51.084;3.712;2022-12-01T15:08:32;43.05;;;24.10;;
48574;SDS011;34352;51.084;3.712;2022-12-01T15:11:01;47.83;;;24.95;;
48574;SDS011;34352;51.084;3.712;2022-12-01T15:15:56;51.33;;;25.67;;
48574;SDS011;34352;51.084;3.712;2022-12-01T15:18:27;47.75;;;25.80;;
48574;SDS011;34352;51.084;3.712;2022-12-01T15:20:57;50.83;;;26.70;;
48574;SDS011;34352;51.084;3.712;2022-12-01T15:26:56;50.00;;;26.60;;
48574;SDS011;34352;51.084;3.712;2022-12-01T15:31:59;52.60;;;27.20;;
48574;SDS011;34352;51.084;3.712;2022-12-01T15:34:34;49.80;;;26.17;;
48574;SDS011;34352;51.084;3.712;2022-12-01T15:37:14;57.72;;;27.60;;
48574;SDS011;34352;51.084;3.712;2022-12-01T15:42:29;59.80;;;28.60;;
48574;SDS011;34352;51.084;3.712;2022-12-01T15:48:02;65.32;;;29.10;;
48574;SDS011;34352;51.084;3.712;2022-12-01T15:50:25;57.75;;;28.17;;
48574;SDS011;34352;51.084;3.712;2022-12-01T15:52:55;62.08;;;29.63;;
48574;SDS011;34352;51.084;3.712;2022-12-01T15:55:55;64.22;;;30.50;;
48574;SDS011;34352;51.084;3.712;2022-12-01T15:58:24;65.38;;;30.02;;
48574;SDS011;34352;51.084;3.712;2022-12-01T16:01:06;61.45;;;29.02;;
48574;SDS011;34352;51.084;3.712;2022-12-01T16:03:47;62.47;;;29.65;;
48574;SDS011;34352;51.084;3.712;2022-12-01T16:06:22;53.50;;;27.15;;
48574;SDS011;34352;51.084;3.712;2022-12-01T16:08:53;65.53;;;29.17;;
48574;SDS011;34352;51.084;3.712;2022-12-01T16:11:25;61.00;;;29.08;;
48574;SDS011;34352;51.084;3.712;2022-12-01T16:14:04;58.90;;;28.67;;
48574;SDS011;34352;51.084;3.712;2022-12-01T16:16:43;59.42;;;28.13;;
48574;SDS011;34352;51.084;3.712;2022-12-01T16:24:58;59.35;;;27.20;;
48574;SDS011;34352;51.084;3.712;2022-12-01T16:27:27;58.78;;;27.05;;
48574;SDS011;34352;51.084;3.712;2022-12-01T16:30:04;59.45;;;27.80;;
48574;SDS011;34352;51.084;3.712;2022-12-01T16:32:43;58.80;;;28.40;;
48574;SDS011;34352;51.084;3.712;2022-12-01T16:35:25;59.22;;;28.45;;
48574;SDS011;34352;51.084;3.712;2022-12-01T16:37:56;57.40;;;27.45;;
48574;SDS011;34352;51.084;3.712;2022-12-01T16:40:22;59.10;;;28.40;;
48574;SDS011;34352;51.084;3.712;2022-12-01T16:42:49;59.33;;;27.48;;
48574;SDS011;34352;51.084;3.712;2022-12-01T16:45:15;64.93;;;29.23;;
48574;SDS011;34352;51.084;3.712;2022-12-01T16:47:42;76.20;;;35.13;;
48574;SDS011;34352;51.084;3.712;2022-12-01T16:53:20;63.85;;;29.35;;
48574;SDS011;34352;51.084;3.712;2022-12-01T16:55:50;64.03;;;30.65;;
48574;SDS011;34352;51.084;3.712;2022-12-01T16:58:23;59.92;;;29.38;;
48574;SDS011;34352;51.084;3.712;2022-12-01T17:00:49;69.20;;;31.40;;
48574;SDS011;34352;51.084;3.712;2022-12-01T17:03:25;65.38;;;30.42;;
48574;SDS011;34352;51.084;3.712;2022-12-01T17:05:51;60.97;;;29.20;;
48574;SDS011;34352;51.084;3.712;2022-12-01T17:11:29;61.50;;;29.42;;
48574;SDS011;34352;51.084;3.712;2022-12-01T17:13:54;65.97;;;31.38;;
48574;SDS011;34352;51.084;3.712;2022-12-01T17:18:52;75.82;;;35.22;;
48574;SDS011;34352;51.084;3.712;2022-12-01T17:21:18;66.78;;;33.38;;
48574;SDS011;34352;51.084;3.712;2022-12-01T17:23:43;67.10;;;32.58;;
48574;SDS011;34352;51.084;3.712;2022-12-01T17:26:11;70.53;;;33.58;;
48574;SDS011;34352;51.084;3.712;2022-12-01T17:28:40;69.43;;;31.92;;
48574;SDS011;34352;51.084;3.712;2022-12-01T17:31:06;56.15;;;26.33;;
48574;SDS011;34352;51.084;3.712;2022-12-01T17:33:36;57.95;;;27.25;;
48574;SDS011;34352;51.084;3.712;2022-12-01T17:36:06;57.00;;;27.35;;
48574;SDS011;34352;51.084;3.712;2022-12-01T17:38:36;62.78;;;28.27;;
48574;SDS011;34352;51.084;3.712;2022-12-01T17:41:04;59.45;;;27.50;;
48574;SDS011;34352;51.084;3.712;2022-12-01T17:43:32;62.22;;;27.88;;
48574;SDS011;34352;51.084;3.712;2022-12-01T17:46:01;59.35;;;28.52;;
48574;SDS011;34352;51.084;3.712;2022-12-01T17:48:28;68.20;;;29.45;;
48574;SDS011;34352;51.084;3.712;2022-12-01T17:50:53;60.38;;;28.40;;
48574;SDS011;34352;51.084;3.712;2022-12-01T17:53:19;60.75;;;27.55;;
48574;SDS011;34352;51.084;3.712;2022-12-01T17:55:45;61.92;;;28.52;;
48574;SDS011;34352;51.084;3.712;2022-12-01T17:58:11;59.40;;;27.58;;
48574;SDS011;34352;51.084;3.712;2022-12-01T18:00:36;67.07;;;28.35;;
48574;SDS011;34352;51.084;3.712;2022-12-01T18:03:02;62.22;;;27.98;;
48574;SDS011;34352;51.084;3.712;2022-12-01T18:05:28;62.85;;;28.73;;
48574;SDS011;34352;51.084;3.712;2022-12-01T18:07:54;63.88;;;28.63;;
48574;SDS011;34352;51.084;3.712;2022-12-01T18:10:19;66.32;;;29.65;;
48574;SDS011;34352;51.084;3.712;2022-12-01T18:12:45;65.68;;;29.45;;
48574;SDS011;34352;51.084;3.712;2022-12-01T18:15:11;64.80;;;30.00;;
48574;SDS011;34352;51.084;3.712;2022-12-01T18:17:37;70.97;;;31.98;;
48574;SDS011;34352;51.084;3.712;2022-12-01T18:20:03;67.75;;;31.63;;
48574;SDS011;34352;51.084;3.712;2022-12-01T18:22:30;72.18;;;34.25;;
48574;SDS011;34352;51.084;3.712;2022-12-01T18:24:56;82.10;;;34.65;;
48574;SDS011;34352;51.084;3.712;2022-12-01T18:27:22;75.40;;;34.80;;
48574;SDS011;34352;51.084;3.712;2022-12-01T18:29:48;83.10;;;36.70;;
48574;SDS011;34352;51.084;3.712;2022-12-01T18:32:14;82.13;;;37.25;;
48574;SDS011;34352;51.084;3.712;2022-12-01T18:34:41;90.88;;;39.22;;
48574;SDS011;34352;51.084;3.712;2022-12-01T18:37:09;128.20;;;52.20;;
48574;SDS011;34352;51.084;3.712;2022-12-01T18:39:35;104.85;;;45.92;;
48574;SDS011;34352;51.084;3.712;2022-12-01T19:13:08;85.95;;;37.92;;
48574;SDS011;34352;51.084;3.712;2022-12-01T20:31:13;95.10;;;42.95;;
48574;SDS011;34352;51.084;3.712;2022-12-01T20:33:53;97.47;;;42.53;;
